Aviation Digital Data Service (ADDS)

Output produced by METARs form (1200 UTC 26 March 2019)
found at http://www.aviationweather.gov/metar/data/
 
METAR text: HESN 261000Z 29005KT CAVOK 23/M05 Q1017 NOSIG
Conditions at: HESN (ASWAN (CIV/MIL) , EG) observed 1000 UTC 26 March 2019
Temperature: 23.0°C (73°F)
Dewpoint: -5.0°C (23°F) [RH = 15%]
Pressure (altimeter): 30.03 inches Hg (1017.0 mb)
Winds: from the WNW (290 degrees) at 6 MPH (5 knots; 2.6 m/s)
Visibility: 6 or more miles (10+ km)
Ceiling: ceiling and visibility are OK
Clouds: unknown
Weather: no significant weather observed at this time

METAR text: HESN 260900Z 23004KT CAVOK 23/M06 Q1018 NOSIG
Conditions at: HESN (ASWAN (CIV/MIL) , EG) observed 0900 UTC 26 March 2019
Temperature: 23.0°C (73°F)
Dewpoint: -6.0°C (21°F) [RH = 14%]
Pressure (altimeter): 30.06 inches Hg (1018.0 mb)
Winds: from the SW (230 degrees) at 5 MPH (4 knots; 2.1 m/s)
Visibility: 6 or more miles (10+ km)
Ceiling: ceiling and visibility are OK
Clouds: unknown
Weather: no significant weather observed at this time

METAR text: HESN 260800Z 01003KT CAVOK 21/M06 Q1018 NOSIG
Conditions at: HESN (ASWAN (CIV/MIL) , EG) observed 0800 UTC 26 March 2019
Temperature: 21.0°C (70°F)
Dewpoint: -6.0°C (21°F) [RH = 16%]
Pressure (altimeter): 30.06 inches Hg (1018.0 mb)
Winds: from the N (10 degrees) at 3 MPH (3 knots; 1.5 m/s)
Visibility: 6 or more miles (10+ km)
Ceiling: ceiling and visibility are OK
Clouds: unknown
Weather: no significant weather observed at this time

METAR text: HESN 260600Z 31006KT CAVOK 18/M05 Q1017 NOSIG
Conditions at: HESN (ASWAN (CIV/MIL) , EG) observed 0600 UTC 26 March 2019
Temperature: 18.0°C (64°F)
Dewpoint: -5.0°C (23°F) [RH = 20%]
Pressure (altimeter): 30.03 inches Hg (1017.0 mb)
Winds: from the NW (310 degrees) at 7 MPH (6 knots; 3.1 m/s)
Visibility: 6 or more miles (10+ km)
Ceiling: ceiling and visibility are OK
Clouds: unknown
Weather: no significant weather observed at this time

METAR text: HESN 260500Z VRB02KT CAVOK 15/M06 Q1016 NOSIG
Conditions at: HESN (ASWAN (CIV/MIL) , EG) observed 0500 UTC 26 March 2019
Temperature: 15.0°C (59°F)
Dewpoint: -6.0°C (21°F) [RH = 23%]
Pressure (altimeter): 30.00 inches Hg (1016.0 mb)
Winds: variable direction winds at 2 MPH (2 knots; 1.0 m/s)
Visibility: 6 or more miles (10+ km)
Ceiling: ceiling and visibility are OK
Clouds: unknown
Weather: no significant weather observed at this time

METAR text: HESN 260400Z VRB01KT CAVOK 12/M06 Q1015 NOSIG
Conditions at: HESN (ASWAN (CIV/MIL) , EG) observed 0400 UTC 26 March 2019
Temperature: 12.0°C (54°F)
Dewpoint: -6.0°C (21°F) [RH = 28%]
Pressure (altimeter): 29.97 inches Hg (1015.0 mb)
Winds: variable direction winds at 1 MPH (1 knots; 0.5 m/s)
Visibility: 6 or more miles (10+ km)
Ceiling: ceiling and visibility are OK
Clouds: unknown
Weather: no significant weather observed at this time

METAR text: HESN 260300Z 03002KT CAVOK 13/M06 Q1014 NOSIG
Conditions at: HESN (ASWAN (CIV/MIL) , EG) observed 0300 UTC 26 March 2019
Temperature: 13.0°C (55°F)
Dewpoint: -6.0°C (21°F) [RH = 26%]
Pressure (altimeter): 29.94 inches Hg (1014.0 mb)
Winds: from the NNE (30 degrees) at 2 MPH (2 knots; 1.0 m/s)
Visibility: 6 or more miles (10+ km)
Ceiling: ceiling and visibility are OK
Clouds: unknown
Weather: no significant weather observed at this time

METAR text: HESN 260100Z 34006KT CAVOK 15/M04 Q1014 NOSIG
Conditions at: HESN (ASWAN (CIV/MIL) , EG) observed 0100 UTC 26 March 2019
Temperature: 15.0°C (59°F)
Dewpoint: -4.0°C (25°F) [RH = 27%]
Pressure (altimeter): 29.94 inches Hg (1014.0 mb)
Winds: from the NNW (340 degrees) at 7 MPH (6 knots; 3.1 m/s)
Visibility: 6 or more miles (10+ km)
Ceiling: ceiling and visibility are OK
Clouds: unknown
Weather: no significant weather observed at this time

METAR text: HESN 260000Z 34004KT CAVOK 15/M03 Q1013 NOSIG
Conditions at: HESN (ASWAN (CIV/MIL) , EG) observed 0000 UTC 26 March 2019
Temperature: 15.0°C (59°F)
Dewpoint: -3.0°C (27°F) [RH = 29%]
Pressure (altimeter): 29.91 inches Hg (1013.0 mb)
Winds: from the NNW (340 degrees) at 5 MPH (4 knots; 2.1 m/s)
Visibility: 6 or more miles (10+ km)
Ceiling: ceiling and visibility are OK
Clouds: unknown
Weather: no significant weather observed at this time

METAR text: HESN 252300Z 01005KT CAVOK 16/M02 Q1013 NOSIG
Conditions at: HESN (ASWAN (CIV/MIL) , EG) observed 2300 UTC 25 March 2019
Temperature: 16.0°C (61°F)
Dewpoint: -2.0°C (28°F) [RH = 29%]
Pressure (altimeter): 29.91 inches Hg (1013.0 mb)
Winds: from the N (10 degrees) at 6 MPH (5 knots; 2.6 m/s)
Visibility: 6 or more miles (10+ km)
Ceiling: ceiling and visibility are OK
Clouds: unknown
Weather: no significant weather observed at this time

METAR text: HESN 252200Z 36005KT CAVOK 17/M02 Q1013 NOSIG
Conditions at: HESN (ASWAN (CIV/MIL) , EG) observed 2200 UTC 25 March 2019
Temperature: 17.0°C (63°F)
Dewpoint: -2.0°C (28°F) [RH = 27%]
Pressure (altimeter): 29.91 inches Hg (1013.0 mb)
Winds: from the N (360 degrees) at 6 MPH (5 knots; 2.6 m/s)
Visibility: 6 or more miles (10+ km)
Ceiling: ceiling and visibility are OK
Clouds: unknown
Weather: no significant weather observed at this time

METAR text: HESN 252100Z 34006KT CAVOK 19/00 Q1013 NOSIG
Conditions at: HESN (ASWAN (CIV/MIL) , EG) observed 2100 UTC 25 March 2019
Temperature: 19.0°C (66°F)
Dewpoint: 0.0°C (32°F) [RH = 28%]
Pressure (altimeter): 29.91 inches Hg (1013.0 mb)
Winds: from the NNW (340 degrees) at 7 MPH (6 knots; 3.1 m/s)
Visibility: 6 or more miles (10+ km)
Ceiling: ceiling and visibility are OK
Clouds: unknown
Weather: no significant weather observed at this time

METAR text: HESN 251900Z 32009KT CAVOK 20/01 Q1013 NOSIG
Conditions at: HESN (ASWAN (CIV/MIL) , EG) observed 1900 UTC 25 March 2019
Temperature: 20.0°C (68°F)
Dewpoint: 1.0°C (34°F) [RH = 28%]
Pressure (altimeter): 29.91 inches Hg (1013.0 mb)
Winds: from the NW (320 degrees) at 10 MPH (9 knots; 4.6 m/s)
Visibility: 6 or more miles (10+ km)
Ceiling: ceiling and visibility are OK
Clouds: unknown
Weather: no significant weather observed at this time

METAR text: HESN 251800Z 31007KT CAVOK 21/01 Q1011 NOSIG
Conditions at: HESN (ASWAN (CIV/MIL) , EG) observed 1800 UTC 25 March 2019
Temperature: 21.0°C (70°F)
Dewpoint: 1.0°C (34°F) [RH = 26%]
Pressure (altimeter): 29.85 inches Hg (1011.0 mb)
Winds: from the NW (310 degrees) at 8 MPH (7 knots; 3.6 m/s)
Visibility: 6 or more miles (10+ km)
Ceiling: ceiling and visibility are OK
Clouds: unknown
Weather: no significant weather observed at this time

METAR text: HESN 251700Z 31009KT CAVOK 22/01 Q1011 NOSIG
Conditions at: HESN (ASWAN (CIV/MIL) , EG) observed 1700 UTC 25 March 2019
Temperature: 22.0°C (72°F)
Dewpoint: 1.0°C (34°F) [RH = 25%]
Pressure (altimeter): 29.85 inches Hg (1011.0 mb)
Winds: from the NW (310 degrees) at 10 MPH (9 knots; 4.6 m/s)
Visibility: 6 or more miles (10+ km)
Ceiling: ceiling and visibility are OK
Clouds: unknown
Weather: no significant weather observed at this time

METAR text: HESN 251600Z 32015KT CAVOK 23/01 Q1010 NOSIG
Conditions at: HESN (ASWAN (CIV/MIL) , EG) observed 1600 UTC 25 March 2019
Temperature: 23.0°C (73°F)
Dewpoint: 1.0°C (34°F) [RH = 23%]
Pressure (altimeter): 29.82 inches Hg (1010.0 mb)
Winds: from the NW (320 degrees) at 17 MPH (15 knots; 7.7 m/s)
Visibility: 6 or more miles (10+ km)
Ceiling: ceiling and visibility are OK
Clouds: unknown
Weather: no significant weather observed at this time

METAR text: HESN 251400Z 31016KT CAVOK 24/00 Q1009 NOSIG
Conditions at: HESN (ASWAN (CIV/MIL) , EG) observed 1400 UTC 25 March 2019
Temperature: 24.0°C (75°F)
Dewpoint: 0.0°C (32°F) [RH = 20%]
Pressure (altimeter): 29.79 inches Hg (1009.0 mb)
Winds: from the NW (310 degrees) at 18 MPH (16 knots; 8.2 m/s)
Visibility: 6 or more miles (10+ km)
Ceiling: ceiling and visibility are OK
Clouds: unknown
Weather: no significant weather observed at this time

METAR text: HESN 251300Z 31017KT 280V350 CAVOK 25/00 Q1009 NOSIG
Conditions at: HESN (ASWAN (CIV/MIL) , EG) observed 1300 UTC 25 March 2019
Temperature: 25.0°C (77°F)
Dewpoint: 0.0°C (32°F) [RH = 19%]
Pressure (altimeter): 29.79 inches Hg (1009.0 mb)
Winds: from the NW (310 degrees) at 20 MPH (17 knots; 8.7 m/s)
Visibility: 6 or more miles (10+ km)
Ceiling: ceiling and visibility are OK
Clouds: unknown
Weather: no significant weather observed at this time

METAR text: HESN 251200Z 30017KT CAVOK 26/00 Q1010 NOSIG
Conditions at: HESN (ASWAN (CIV/MIL) , EG) observed 1200 UTC 25 March 2019
Temperature: 26.0°C (79°F)
Dewpoint: 0.0°C (32°F) [RH = 18%]
Pressure (altimeter): 29.82 inches Hg (1010.0 mb)
Winds: from the WNW (300 degrees) at 20 MPH (17 knots; 8.7 m/s)
Visibility: 6 or more miles (10+ km)
Ceiling: ceiling and visibility are OK
Clouds: unknown
Weather: no significant weather observed at this time

METAR text: HESN 251100Z 31013KT CAVOK 25/02 Q1010 NOSIG
Conditions at: HESN (ASWAN (CIV/MIL) , EG) observed 1100 UTC 25 March 2019
Temperature: 25.0°C (77°F)
Dewpoint: 2.0°C (36°F) [RH = 22%]
Pressure (altimeter): 29.82 inches Hg (1010.0 mb)
Winds: from the NW (310 degrees) at 15 MPH (13 knots; 6.7 m/s)
Visibility: 6 or more miles (10+ km)
Ceiling: ceiling and visibility are OK
Clouds: unknown
Weather: no significant weather observed at this time

METAR text: HESN 251000Z 30014KT CAVOK 24/00 Q1011 NOSIG
Conditions at: HESN (ASWAN (CIV/MIL) , EG) observed 1000 UTC 25 March 2019
Temperature: 24.0°C (75°F)
Dewpoint: 0.0°C (32°F) [RH = 20%]
Pressure (altimeter): 29.85 inches Hg (1011.0 mb)
Winds: from the WNW (300 degrees) at 16 MPH (14 knots; 7.2 m/s)
Visibility: 6 or more miles (10+ km)
Ceiling: ceiling and visibility are OK
Clouds: unknown
Weather: no significant weather observed at this time

METAR text: HESN 250900Z 31012KT CAVOK 24/01 Q1011 NOSIG
Conditions at: HESN (ASWAN (CIV/MIL) , EG) observed 0900 UTC 25 March 2019
Temperature: 24.0°C (75°F)
Dewpoint: 1.0°C (34°F) [RH = 22%]
Pressure (altimeter): 29.85 inches Hg (1011.0 mb)
Winds: from the NW (310 degrees) at 14 MPH (12 knots; 6.2 m/s)
Visibility: 6 or more miles (10+ km)
Ceiling: ceiling and visibility are OK
Clouds: unknown
Weather: no significant weather observed at this time

METAR text: HESN 250800Z 31014KT CAVOK 22/01 Q1011 NOSIG
Conditions at: HESN (ASWAN (CIV/MIL) , EG) observed 0800 UTC 25 March 2019
Temperature: 22.0°C (72°F)
Dewpoint: 1.0°C (34°F) [RH = 25%]
Pressure (altimeter): 29.85 inches Hg (1011.0 mb)
Winds: from the NW (310 degrees) at 16 MPH (14 knots; 7.2 m/s)
Visibility: 6 or more miles (10+ km)
Ceiling: ceiling and visibility are OK
Clouds: unknown
Weather: no significant weather observed at this time

METAR text: HESN 250700Z 33010KT CAVOK 21/02 Q1011 NOSIG
Conditions at: HESN (ASWAN (CIV/MIL) , EG) observed 0700 UTC 25 March 2019
Temperature: 21.0°C (70°F)
Dewpoint: 2.0°C (36°F) [RH = 28%]
Pressure (altimeter): 29.85 inches Hg (1011.0 mb)
Winds: from the NNW (330 degrees) at 12 MPH (10 knots; 5.1 m/s)
Visibility: 6 or more miles (10+ km)
Ceiling: ceiling and visibility are OK
Clouds: unknown
Weather: no significant weather observed at this time

METAR text: HESN 250400Z 31004KT CAVOK 17/01 Q1009 NOSIG
Conditions at: HESN (ASWAN (CIV/MIL) , EG) observed 0400 UTC 25 March 2019
Temperature: 17.0°C (63°F)
Dewpoint: 1.0°C (34°F) [RH = 34%]
Pressure (altimeter): 29.79 inches Hg (1009.0 mb)
Winds: from the NW (310 degrees) at 5 MPH (4 knots; 2.1 m/s)
Visibility: 6 or more miles (10+ km)
Ceiling: ceiling and visibility are OK
Clouds: unknown
Weather: no significant weather observed at this time

METAR text: HESN 250300Z 29006KT CAVOK 18/01 Q1009 NOSIG
Conditions at: HESN (ASWAN (CIV/MIL) , EG) observed 0300 UTC 25 March 2019
Temperature: 18.0°C (64°F)
Dewpoint: 1.0°C (34°F) [RH = 32%]
Pressure (altimeter): 29.79 inches Hg (1009.0 mb)
Winds: from the WNW (290 degrees) at 7 MPH (6 knots; 3.1 m/s)
Visibility: 6 or more miles (10+ km)
Ceiling: ceiling and visibility are OK
Clouds: unknown
Weather: no significant weather observed at this time

METAR text: HESN 250200Z 30008KT CAVOK 18/01 Q1009 NOSIG
Conditions at: HESN (ASWAN (CIV/MIL) , EG) observed 0200 UTC 25 March 2019
Temperature: 18.0°C (64°F)
Dewpoint: 1.0°C (34°F) [RH = 32%]
Pressure (altimeter): 29.79 inches Hg (1009.0 mb)
Winds: from the WNW (300 degrees) at 9 MPH (8 knots; 4.1 m/s)
Visibility: 6 or more miles (10+ km)
Ceiling: ceiling and visibility are OK
Clouds: unknown
Weather: no significant weather observed at this time

METAR text: HESN 250100Z 29006KT CAVOK 18/01 Q1008 NOSIG
Conditions at: HESN (ASWAN (CIV/MIL) , EG) observed 0100 UTC 25 March 2019
Temperature: 18.0°C (64°F)
Dewpoint: 1.0°C (34°F) [RH = 32%]
Pressure (altimeter): 29.76 inches Hg (1008.0 mb)
Winds: from the WNW (290 degrees) at 7 MPH (6 knots; 3.1 m/s)
Visibility: 6 or more miles (10+ km)
Ceiling: ceiling and visibility are OK
Clouds: unknown
Weather: no significant weather observed at this time

Forecast for: HESN (ASWAN (CIV/MIL) , EG)
Text: TAF HESN 261100Z 2612/2718 35012KT CAVOK
Forecast period: 1200 UTC 26 March 2019 to 1800 UTC 27 March 2019
Forecast type: FROM: standard forecast or significant change
Winds: from the N (350 degrees) at 14 MPH (12 knots; 6.2 m/s)
Visibility: 6 or more miles 10+ km)
Ceiling: unknown
Clouds: missing
Weather: NSW  (no significant weather)